Time;durP1;ratioP1;P1;durP2;ratioP2;P2;SDS_P1;SDS_P2;PMS_P1;PMS_P2;Temp;Humidity;BMP_temperature;BMP_pressure;BME280_temperature;BME280_humidity;BME280_pressure;Samples;Min_cycle;Max_cycle;Signal;HPM_P1;HPM_P2
2021/12/06 00:01:57;;;;;;;;;;;;;;;0.01;83.72;100029.45;1672433;84;20497;-66
2021/12/06 00:04:28;;;;;;;;;;;;;;;-0.01;83.71;100024.17;1660009;84;20571;-67
2021/12/06 00:07:00;;;;;;;;;;;;;;;-0.02;83.84;100033.25;1649793;84;20591;-65
2021/12/06 00:09:29;;;;;;;;;;;;;;;-0.01;83.99;100028.71;1662079;84;20599;-66
2021/12/06 00:11:59;;;;;;;;;;;;;;;-0.01;84.02;100028.71;1654220;84;20212;-65
2021/12/06 00:14:29;;;;;;;;;;;;;;;0.05;84.14;100020.59;1650034;84;20479;-67
2021/12/06 00:17:03;;;;;;;;;;;;;;;0.08;84.12;100027.91;1661326;84;20224;-65
2021/12/06 00:19:32;;;;;;;;;;;;;;;0.06;84.10;100028.54;1677144;84;20262;-65
2021/12/06 00:22:02;;;;;;;;;;;;;;;0.09;84.23;100026.06;1674566;84;20154;-65
2021/12/06 00:24:31;;;;;;;;;;;;;;;0.09;84.26;100018.83;1663616;84;20277;-66
2021/12/06 00:27:00;;;;;;;;;;;;;;;0.11;84.32;100014.66;1645620;84;20496;-66
2021/12/06 00:29:28;;;;;;;;;;;;;;;0.15;84.34;100022.81;1665898;84;20198;-65
2021/12/06 00:31:57;;;;;;;;;;;;;;;0.18;84.39;100024.72;1672683;84;20212;-65
2021/12/06 00:34:30;;;;;;;;;;;;;;;0.22;84.39;100018.06;1659970;84;20170;-67
2021/12/06 00:37:15;;;;;;;;;;;;;;;0.23;84.37;100018.91;1663385;84;20206;-65
2021/12/06 00:39:26;;;;;;;;;;;;;;;0.21;84.42;100012.81;1658183;84;20201;-66
2021/12/06 00:41:54;;;;;;;;;;;;;;;0.19;84.43;100017.00;1645480;84;20191;-67
2021/12/06 00:44:22;;;;;;;;;;;;;;;0.21;84.55;100020.41;1657704;84;20289;-66
2021/12/06 00:46:52;;;;;;;;;;;;;;;0.19;84.65;100014.30;1648934;87;20160;-65
2021/12/06 00:49:21;;;;;;;;;;;;;;;0.17;84.69;100014.94;1635976;86;20217;-64
2021/12/06 00:51:49;;;;;;;;;;;;;;;0.21;84.80;100008.77;1636103;86;20689;-65
2021/12/06 00:54:18;;;;;;;;;;;;;;;0.24;84.69;100004.45;1643324;86;20214;-65
2021/12/06 00:56:47;;;;;;;;;;;;;;;0.24;84.66;99999.91;1641127;87;20211;-64
2021/12/06 00:59:16;;;;;;;;;;;;;;;0.25;84.72;100004.31;1642047;87;20460;-64
2021/12/06 01:01:45;;;;;;;;;;;;;;;0.24;84.71;100011.19;1650778;87;21108;-65
2021/12/06 01:04:15;;;;;;;;;;;;;;;0.24;84.75;100005.30;1641097;87;20165;-65
2021/12/06 01:06:44;;;;;;;;;;;;;;;0.25;84.80;99998.07;1638755;87;20177;-66
2021/12/06 01:09:13;;;;;;;;;;;;;;;0.29;84.75;100004.88;1645993;86;20165;-66
2021/12/06 01:11:42;;;;;;;;;;;;;;;0.31;84.74;100001.55;1637227;87;20720;-67
2021/12/06 01:14:10;;;;;;;;;;;;;;;0.32;84.72;99995.16;1645791;84;20540;-65
2021/12/06 01:16:39;;;;;;;;;;;;;;;0.32;84.72;99996.52;1708231;82;20571;-66
2021/12/06 01:19:07;;;;;;;;;;;;;;;0.31;84.72;99986.23;1703988;83;20562;-64
2021/12/06 01:22:04;;;;;;;;;;;;;;;0.32;84.71;99992.47;1691467;83;20166;-65
2021/12/06 01:24:25;;;;;;;;;;;;;;;0.31;84.81;99992.96;1690762;83;20223;-64
2021/12/06 01:27:12;;;;;;;;;;;;;;;0.34;84.86;99986.94;1707561;83;20196;-66
2021/12/06 01:32:18;;;;;;;;;;;;;;;0.37;84.92;99985.30;1691738;83;20234;-66
2021/12/06 01:40:12;;;;;;;;;;;;;;;0.39;84.96;99979.28;1682820;84;20223;-66
2021/12/06 01:42:41;;;;;;;;;;;;;;;0.42;85.04;99980.34;1680579;84;20190;-66
2021/12/06 01:45:10;;;;;;;;;;;;;;;0.41;85.01;99968.70;1688105;84;20472;-64
2021/12/06 01:47:40;;;;;;;;;;;;;;;0.40;85.07;99965.66;1675862;84;20557;-66
2021/12/06 01:50:14;;;;;;;;;;;;;;;0.39;85.08;99965.30;1707862;83;20155;-64
2021/12/06 01:52:47;;;;;;;;;;;;;;;0.39;85.13;99953.17;1723460;83;20152;-66
2021/12/06 01:55:17;;;;;;;;;;;;;;;0.40;85.27;99955.37;1695764;83;20170;-64
2021/12/06 01:57:46;;;;;;;;;;;;;;;0.44;85.36;99958.13;1696447;83;20491;-66
2021/12/06 02:00:18;;;;;;;;;;;;;;;0.45;85.37;99955.80;1707634;83;20162;-65
2021/12/06 02:02:48;;;;;;;;;;;;;;;0.47;85.43;99956.00;1695539;85;20186;-63
2021/12/06 02:05:19;;;;;;;;;;;;;;;0.46;85.37;99962.39;1709101;83;20550;-63
2021/12/06 02:07:48;;;;;;;;;;;;;;;0.45;85.48;99962.03;1695582;84;20676;-65
2021/12/06 02:10:16;;;;;;;;;;;;;;;0.47;85.56;99964.59;1696126;83;20205;-66
2021/12/06 02:12:47;;;;;;;;;;;;;;;0.50;85.61;99965.64;1583572;89;20181;-65
2021/12/06 02:18:06;;;;;;;;;;;;;;;0.55;85.68;99963.37;1583191;90;20162;-65
2021/12/06 02:20:29;;;;;;;;;;;;;;;0.54;85.72;99955.78;1574696;91;20189;-65
2021/12/06 02:22:59;;;;;;;;;;;;;;;0.57;85.71;99955.48;1566608;92;20540;-64
2021/12/06 02:25:28;;;;;;;;;;;;;;;0.56;85.63;99951.59;1580697;90;20511;-65
2021/12/06 02:27:57;;;;;;;;;;;;;;;0.57;85.74;99951.94;1573879;90;20582;-63
2021/12/06 02:30:26;;;;;;;;;;;;;;;0.58;85.78;99955.84;1580278;91;20179;-65
2021/12/06 02:32:55;;;;;;;;;;;;;;;0.59;85.80;99959.39;1566496;91;20320;-64
2021/12/06 02:35:24;;;;;;;;;;;;;;;0.59;85.77;99955.34;1576765;90;20293;-65
2021/12/06 02:37:54;;;;;;;;;;;;;;;0.56;85.80;99951.09;1649045;85;20190;-65
2021/12/06 02:40:26;;;;;;;;;;;;;;;0.59;85.88;99954.00;1695143;85;20521;-65
2021/12/06 02:42:55;;;;;;;;;;;;;;;0.58;85.85;99955.84;1678803;85;20154;-65
2021/12/06 02:45:25;;;;;;;;;;;;;;;0.59;85.91;99948.61;1674171;85;20230;-64
2021/12/06 02:47:54;;;;;;;;;;;;;;;0.59;85.92;99949.95;1681858;85;20443;-65
2021/12/06 02:50:27;;;;;;;;;;;;;;;0.59;85.96;99959.39;1706676;83;20218;-65
2021/12/06 02:52:56;;;;;;;;;;;;;;;0.60;85.97;99959.24;1725004;83;20184;-66
2021/12/06 02:55:32;;;;;;;;;;;;;;;0.61;86.01;99957.40;1691213;84;20197;-64
2021/12/06 02:58:02;;;;;;;;;;;;;;;0.61;85.92;99962.78;1726683;83;20195;-65
2021/12/06 03:00:33;;;;;;;;;;;;;;;0.63;85.95;99956.75;1704071;83;20210;-65
2021/12/06 03:03:01;;;;;;;;;;;;;;;0.63;85.96;99958.10;1724393;83;20462;-64
2021/12/06 03:05:31;;;;;;;;;;;;;;;0.61;85.94;99954.20;1676584;85;20526;-65
2021/12/06 03:08:00;;;;;;;;;;;;;;;0.60;85.94;99955.20;1677557;85;20250;-66
2021/12/06 03:10:29;;;;;;;;;;;;;;;0.63;85.99;99958.10;1690124;84;20598;-65
2021/12/06 03:12:58;;;;;;;;;;;;;;;0.64;85.95;99955.76;1580482;91;20930;-65
2021/12/06 03:15:27;;;;;;;;;;;;;;;0.63;85.88;99960.30;1585148;90;20232;-64
2021/12/06 03:17:55;;;;;;;;;;;;;;;0.62;85.89;99962.64;1564128;91;20601;-65
2021/12/06 03:20:25;;;;;;;;;;;;;;;0.62;85.96;99961.80;1564163;91;20598;-65
2021/12/06 03:22:53;;;;;;;;;;;;;;;0.60;85.92;99966.48;1476463;97;20297;-65
2021/12/06 03:25:23;;;;;;;;;;;;;;;0.61;85.93;99964.98;1475001;97;20509;-65
2021/12/06 03:27:51;;;;;;;;;;;;;;;0.62;85.91;99967.19;1469296;97;20181;-65
2021/12/06 03:30:20;;;;;;;;;;;;;;;0.64;85.92;99967.89;1492513;91;20198;-64
2021/12/06 03:32:48;;;;;;;;;;;;;;;0.67;85.94;99962.23;1584698;89;20550;-66
2021/12/06 03:35:17;;;;;;;;;;;;;;;0.68;85.92;99965.28;1593800;89;20549;-65
2021/12/06 03:37:47;;;;;;;;;;;;;;;0.68;85.87;99972.53;1596027;89;20935;-67
2021/12/06 03:40:16;;;;;;;;;;;;;;;0.69;85.90;99973.73;1614873;85;20245;-65
2021/12/06 03:42:44;;;;;;;;;;;;;;;0.70;85.84;99979.47;1670613;85;20494;-65
2021/12/06 03:45:13;;;;;;;;;;;;;;;0.70;85.75;99979.97;1677327;85;20151;-66
2021/12/06 03:47:42;;;;;;;;;;;;;;;0.66;85.66;99979.41;1683772;85;20190;-65
2021/12/06 03:50:12;;;;;;;;;;;;;;;0.69;85.75;99986.36;1541918;92;20181;-65
2021/12/06 03:52:41;;;;;;;;;;;;;;;0.71;85.72;99989.77;1541479;90;20216;-65
2021/12/06 03:55:12;;;;;;;;;;;;;;;0.72;85.67;99982.88;1582221;90;20211;-66
2021/12/06 03:57:41;;;;;;;;;;;;;;;0.73;85.66;99981.88;1586279;90;20577;-65
2021/12/06 04:00:12;;;;;;;;;;;;;;;0.74;85.56;99982.23;1575704;90;20154;-66
2021/12/06 04:02:45;;;;;;;;;;;;;;;0.73;85.50;99979.68;1586920;90;20220;-66
2021/12/06 04:05:14;;;;;;;;;;;;;;;0.69;85.39;99971.03;1528768;92;20263;-66
2021/12/06 04:07:42;;;;;;;;;;;;;;;0.66;85.45;99974.02;1595538;86;20154;-65
2021/12/06 04:10:11;;;;;;;;;;;;;;;0.63;85.47;99966.19;1661839;85;20320;-65
2021/12/06 04:12:40;;;;;;;;;;;;;;;0.62;85.55;99965.34;1669216;86;20219;-66
2021/12/06 04:15:09;;;;;;;;;;;;;;;0.63;85.56;99969.73;1656082;83;20598;-66
2021/12/06 04:17:38;;;;;;;;;;;;;;;0.64;85.61;99967.89;1627269;87;20231;-67
2021/12/06 04:20:08;;;;;;;;;;;;;;;0.69;85.66;99963.45;1629169;87;20485;-66
2021/12/06 04:22:36;;;;;;;;;;;;;;;0.71;85.64;99962.80;1650089;86;20261;-67
2021/12/06 04:25:11;;;;;;;;;;;;;;;0.68;85.56;99961.24;1632385;86;20213;-65
2021/12/06 04:27:40;;;;;;;;;;;;;;;0.66;85.55;99969.13;1616482;87;20485;-66
2021/12/06 04:30:10;;;;;;;;;;;;;;;0.62;85.54;99963.14;1628955;87;20203;-65
2021/12/06 04:32:39;;;;;;;;;;;;;;;0.61;85.59;99965.48;1620741;87;20218;-65
2021/12/06 04:35:08;;;;;;;;;;;;;;;0.60;85.59;99958.39;1633947;86;20225;-66
2021/12/06 04:37:38;;;;;;;;;;;;;;;0.60;85.62;99962.44;1643351;87;20530;-66
2021/12/06 04:40:08;;;;;;;;;;;;;;;0.58;85.62;99965.77;1624840;87;20259;-66
2021/12/06 04:42:36;;;;;;;;;;;;;;;0.57;85.72;99959.53;1628913;87;20298;-67
2021/12/06 04:45:05;;;;;;;;;;;;;;;0.57;85.74;99953.29;1653404;87;20171;-65
2021/12/06 04:47:34;;;;;;;;;;;;;;;0.58;85.74;99955.84;1655000;85;20202;-66
2021/12/06 04:50:04;;;;;;;;;;;;;;;0.59;85.74;99960.23;1654948;85;20195;-67
2021/12/06 04:52:32;;;;;;;;;;;;;;;0.61;85.71;99966.34;1655184;87;20724;-65
2021/12/06 04:55:01;;;;;;;;;;;;;;;0.63;85.76;99968.88;1654934;85;20525;-65
2021/12/06 04:57:37;;;;;;;;;;;;;;;0.64;85.73;99975.98;1637271;87;20221;-65
2021/12/06 05:00:15;;;;;;;;;;;;;;;0.62;85.76;99970.73;1654799;85;20562;-66
2021/12/06 05:02:43;;;;;;;;;;;;;;;0.62;85.70;99971.23;1654904;87;20473;-66
2021/12/06 05:05:19;;;;;;;;;;;;;;;0.62;85.76;99972.58;1655027;86;20159;-64
2021/12/06 05:07:51;;;;;;;;;;;;;;;0.64;85.84;99975.98;1654815;86;20157;-66
2021/12/06 05:10:19;;;;;;;;;;;;;;;0.67;85.91;99981.11;1655001;87;20252;-65
2021/12/06 05:12:48;;;;;;;;;;;;;;;0.68;85.90;99981.96;1654895;85;20224;-66
2021/12/06 05:15:17;;;;;;;;;;;;;;;0.71;85.99;99985.72;1660686;84;20183;-65
2021/12/06 05:17:46;;;;;;;;;;;;;;;0.69;85.89;99984.52;1698378;84;20162;-67
2021/12/06 05:20:15;;;;;;;;;;;;;;;0.72;85.95;99986.07;1690307;84;20266;-67
2021/12/06 05:22:46;;;;;;;;;;;;;;;0.76;85.91;99978.05;1690722;84;20480;-64
2021/12/06 05:25:15;;;;;;;;;;;;;;;0.76;85.86;99980.23;1690369;84;20229;-66
2021/12/06 05:27:43;;;;;;;;;;;;;;;0.77;85.87;99988.68;1697556;84;20540;-67
2021/12/06 05:30:12;;;;;;;;;;;;;;;0.76;85.83;99984.28;1690384;84;20219;-66
2021/12/06 05:32:42;;;;;;;;;;;;;;;0.74;85.84;99982.73;1698762;83;20170;-66
2021/12/06 05:35:13;;;;;;;;;;;;;;;0.73;85.90;99981.88;1707532;83;20196;-65
2021/12/06 05:37:50;;;;;;;;;;;;;;;0.74;85.94;99980.03;1689818;84;20166;-64
2021/12/06 05:40:21;;;;;;;;;;;;;;;0.76;86.00;99986.98;1698974;84;20647;-65
2021/12/06 05:42:49;;;;;;;;;;;;;;;0.78;86.18;99992.23;1690125;84;20226;-65
2021/12/06 05:45:19;;;;;;;;;;;;;;;0.80;86.15;99995.13;1698788;84;20160;-66
2021/12/06 05:47:48;;;;;;;;;;;;;;;0.81;86.19;99993.28;1690260;84;20711;-66
2021/12/06 05:50:17;;;;;;;;;;;;;;;0.82;86.20;99990.44;1698600;83;20154;-66
2021/12/06 05:52:46;;;;;;;;;;;;;;;0.83;86.21;99992.14;1688225;84;20155;-68
2021/12/06 05:55:15;;;;;;;;;;;;;;;0.86;86.24;99986.46;1688569;84;20205;-67
2021/12/06 05:57:44;;;;;;;;;;;;;;;0.88;86.24;99995.26;1660998;84;20220;-66
2021/12/06 06:00:14;;;;;;;;;;;;;;;0.89;86.29;99991.56;1688369;85;20530;-64
2021/12/06 06:02:43;;;;;;;;;;;;;;;0.93;86.29;99997.02;1690880;84;20205;-66
2021/12/06 06:05:12;;;;;;;;;;;;;;;0.92;86.27;99995.31;1687910;85;20185;-65
2021/12/06 06:07:41;;;;;;;;;;;;;;;0.94;86.25;99998.72;1721997;83;20222;-64
2021/12/06 06:10:10;;;;;;;;;;;;;;;0.98;86.27;99995.73;1722747;83;20462;-66
2021/12/06 06:12:42;;;;;;;;;;;;;;;1.02;86.22;100005.23;1713207;83;20212;-65
2021/12/06 06:15:14;;;;;;;;;;;;;;;1.04;86.17;99997.84;1714458;83;20170;-67
2021/12/06 06:17:44;;;;;;;;;;;;;;;1.04;86.14;100001.38;1710302;83;20176;-66
2021/12/06 06:20:24;;;;;;;;;;;;;;;1.04;86.06;100004.58;1715006;83;20240;-65
2021/12/06 06:22:53;;;;;;;;;;;;;;;1.02;86.07;100009.27;1712336;84;20227;-66
2021/12/06 06:25:22;;;;;;;;;;;;;;;1.05;86.15;100013.87;1720681;83;20163;-67
2021/12/06 06:27:51;;;;;;;;;;;;;;;1.06;86.05;100012.03;1714658;83;20263;-68
2021/12/06 06:30:20;;;;;;;;;;;;;;;1.06;85.98;100013.37;1725073;83;20501;-65
2021/12/06 06:32:48;;;;;;;;;;;;;;;1.04;85.99;100011.33;1717896;83;20545;-66
2021/12/06 06:35:17;;;;;;;;;;;;;;;1.03;86.02;100009.13;1715261;83;20185;-66
2021/12/06 06:37:46;;;;;;;;;;;;;;;1.07;86.12;100009.69;1718163;83;20244;-66
2021/12/06 06:40:14;;;;;;;;;;;;;;;1.10;86.07;100010.73;1678705;85;20222;-66
2021/12/06 06:42:43;;;;;;;;;;;;;;;1.11;86.11;100005.70;1706520;84;20496;-66
2021/12/06 06:45:13;;;;;;;;;;;;;;;1.13;86.06;100005.05;1677274;85;20275;-66
2021/12/06 06:47:43;;;;;;;;;;;;;;;1.14;86.02;100008.10;1676421;85;20163;-67
2021/12/06 06:50:12;;;;;;;;;;;;;;;1.15;86.04;100003.91;1659676;85;20491;-66
2021/12/06 06:52:41;;;;;;;;;;;;;;;1.19;86.01;100012.55;1677071;84;20215;-67
2021/12/06 06:55:11;;;;;;;;;;;;;;;1.20;86.00;100011.55;1694935;84;20164;-67
2021/12/06 06:57:40;;;;;;;;;;;;;;;1.17;85.90;100011.36;1685838;84;20555;-67
2021/12/06 07:00:09;;;;;;;;;;;;;;;1.16;85.91;100016.40;1687934;84;20179;-67
2021/12/06 07:02:38;;;;;;;;;;;;;;;1.14;85.95;100017.05;1685744;84;20178;-69
2021/12/06 07:05:07;;;;;;;;;;;;;;;1.16;86.05;100020.45;1693086;84;20218;-68
2021/12/06 07:07:36;;;;;;;;;;;;;;;1.19;86.13;100019.30;1682744;84;20175;-68
2021/12/06 07:10:06;;;;;;;;;;;;;;;1.23;86.19;100018.01;1688096;84;20470;-68
2021/12/06 07:12:42;;;;;;;;;;;;;;;1.24;86.13;100019.70;1706799;84;20180;-68
2021/12/06 07:15:06;;;;;;;;;;;;;;;1.22;86.08;100016.31;1706196;83;20176;-68
2021/12/06 07:17:34;;;;;;;;;;;;;;;1.20;86.18;100013.76;1687997;84;20163;-68
2021/12/06 07:20:03;;;;;;;;;;;;;;;1.20;86.25;100021.85;1685811;84;20247;-68
2021/12/06 07:22:32;;;;;;;;;;;;;;;1.22;86.30;100020.36;1688100;84;20579;-69
2021/12/06 07:25:04;;;;;;;;;;;;;;;1.21;86.27;100011.41;1688008;84;20164;-70
2021/12/06 07:27:37;;;;;;;;;;;;;;;1.21;86.32;100011.41;1685926;84;20277;-68
2021/12/06 07:30:06;;;;;;;;;;;;;;;1.22;86.49;100009.06;1685720;84;20195;-70
2021/12/06 07:32:35;;;;;;;;;;;;;;;1.21;86.51;100009.21;1688129;84;20165;-71
2021/12/06 07:35:07;;;;;;;;;;;;;;;1.24;86.63;100014.31;1693862;84;20214;-70
2021/12/06 07:37:37;;;;;;;;;;;;;;;1.20;86.60;100015.60;1684010;84;20234;-68
2021/12/06 07:40:09;;;;;;;;;;;;;;;1.19;86.68;100013.91;1695894;83;20225;-70
2021/12/06 07:42:37;;;;;;;;;;;;;;;1.23;86.79;100019.36;1687103;84;20179;-69
2021/12/06 07:45:19;;;;;;;;;;;;;;;1.27;86.86;100022.11;1703353;83;20196;-68
2021/12/06 07:47:48;;;;;;;;;;;;;;;1.29;86.94;100029.56;1687921;85;20191;-69
2021/12/06 07:50:18;;;;;;;;;;;;;;;1.33;87.01;100021.55;1707237;84;20215;-69
2021/12/06 07:52:50;;;;;;;;;;;;;;;1.35;87.07;100021.41;1702679;84;20195;-68
2021/12/06 07:55:20;;;;;;;;;;;;;;;1.38;87.12;100036.80;1680947;85;20282;-68
2021/12/06 07:57:48;;;;;;;;;;;;;;;1.39;87.18;100032.26;1701527;84;20489;-70
2021/12/06 08:00:19;;;;;;;;;;;;;;;1.42;87.22;100034.66;1700313;83;20221;-69
2021/12/06 08:02:48;;;;;;;;;;;;;;;1.45;87.21;100027.61;1696019;84;20221;-69
2021/12/06 08:05:35;;;;;;;;;;;;;;;1.47;87.21;100036.41;1704717;84;20148;-69
2021/12/06 08:08:09;;;;;;;;;;;;;;;1.45;87.13;100035.21;1714981;83;20165;-68
2021/12/06 08:10:40;;;;;;;;;;;;;;;1.46;87.21;100040.11;1668229;85;20208;-68
2021/12/06 08:13:12;;;;;;;;;;;;;;;1.45;87.22;100046.02;1711301;83;20505;-69
2021/12/06 08:15:41;;;;;;;;;;;;;;;1.45;87.28;100049.21;1732158;83;20257;-70
2021/12/06 08:18:11;;;;;;;;;;;;;;;1.45;87.29;100054.61;1725626;82;20172;-69
2021/12/06 08:20:41;;;;;;;;;;;;;;;1.43;87.27;100056.11;1713891;83;20156;-69
2021/12/06 08:23:09;;;;;;;;;;;;;;;1.40;87.26;100053.70;1725783;83;20168;-68
2021/12/06 08:25:38;;;;;;;;;;;;;;;1.41;87.32;100053.20;1730148;83;20207;-67
2021/12/06 08:28:07;;;;;;;;;;;;;;;1.39;87.28;100053.34;1724752;83;20176;-68
2021/12/06 08:30:36;;;;;;;;;;;;;;;1.39;87.38;100056.05;1710422;83;20478;-68
2021/12/06 08:33:05;;;;;;;;;;;;;;;1.39;87.49;100051.15;1706657;84;20235;-67
2021/12/06 08:35:37;;;;;;;;;;;;;;;1.42;87.51;100050.36;1715675;84;20200;-68
2021/12/06 08:38:05;;;;;;;;;;;;;;;1.40;87.46;100048.30;1703002;84;20160;-67
2021/12/06 08:40:34;;;;;;;;;;;;;;;1.39;87.52;100045.75;1695500;83;20167;-67
2021/12/06 08:43:03;;;;;;;;;;;;;;;1.41;87.62;100037.01;1683239;84;20215;-66
2021/12/06 08:45:31;;;;;;;;;;;;;;;1.45;87.67;100033.02;1683523;84;20517;-66
2021/12/06 08:48:00;;;;;;;;;;;;;;;1.47;87.68;100031.02;1674492;85;20169;-66
2021/12/06 08:50:29;;;;;;;;;;;;;;;1.50;87.70;100019.92;1679335;84;20543;-70
2021/12/06 08:52:57;;;;;;;;;;;;;;;1.51;87.73;100021.12;1685307;84;20193;-70
2021/12/06 08:55:26;;;;;;;;;;;;;;;1.49;87.81;100006.92;1691300;84;20174;-70
2021/12/06 08:57:55;;;;;;;;;;;;;;;1.51;87.90;100012.17;1690718;84;20225;-70
2021/12/06 09:00:26;;;;;;;;;;;;;;;1.53;87.98;100011.52;1697118;84;20247;-71
2021/12/06 09:02:56;;;;;;;;;;;;;;;1.56;88.09;100011.22;1670540;85;20160;-71
2021/12/06 09:05:28;;;;;;;;;;;;;;;1.57;88.07;99998.08;1666043;85;20245;-69
2021/12/06 09:07:56;;;;;;;;;;;;;;;1.59;88.07;99994.22;1658021;85;20295;-72
2021/12/06 09:10:26;;;;;;;;;;;;;;;1.62;88.09;99992.22;1604599;88;20209;-73
2021/12/06 09:12:54;;;;;;;;;;;;;;;1.65;88.20;99993.27;1609548;88;20278;-72
2021/12/06 09:15:22;;;;;;;;;;;;;;;1.70;88.23;99991.81;1612892;88;20249;-72
2021/12/06 09:17:53;;;;;;;;;;;;;;;1.73;88.28;99985.27;1585263;88;20153;-63
2021/12/06 09:20:23;;;;;;;;;;;;;;;1.75;88.27;99989.52;1604596;88;20244;-63
2021/12/06 09:22:53;;;;;;;;;;;;;;;1.82;88.32;99987.05;1615055;88;20224;-61
2021/12/06 09:25:21;;;;;;;;;;;;;;;1.85;88.26;99975.95;1611512;87;20258;-63
2021/12/06 09:27:50;;;;;;;;;;;;;;;1.87;88.15;99972.59;1634364;85;20234;-61
2021/12/06 09:30:21;;;;;;;;;;;;;;;1.88;88.06;99974.30;1676617;85;20170;-66
2021/12/06 09:32:52;;;;;;;;;;;;;;;1.86;87.94;99973.09;1676800;84;20150;-64
2021/12/06 09:35:26;;;;;;;;;;;;;;;1.84;87.90;99958.89;1680727;85;20262;-61
2021/12/06 09:37:53;;;;;;;;;;;;;;;1.85;87.98;99955.19;1674276;85;20245;-61
2021/12/06 09:40:22;;;;;;;;;;;;;;;1.87;88.02;99955.89;1656998;87;20220;-64
2021/12/06 09:42:51;;;;;;;;;;;;;;;1.89;88.10;99947.13;1686357;85;20198;-65
2021/12/06 09:45:21;;;;;;;;;;;;;;;1.87;87.99;99955.03;1657139;85;20227;-65
2021/12/06 09:47:52;;;;;;;;;;;;;;;1.88;88.00;99954.03;1653372;85;20189;-64
2021/12/06 09:50:24;;;;;;;;;;;;;;;1.88;87.95;99943.23;1648525;87;20189;-65
2021/12/06 09:52:56;;;;;;;;;;;;;;;1.89;88.00;99938.17;1650531;86;20276;-64
2021/12/06 09:55:25;;;;;;;;;;;;;;;1.89;88.01;99944.92;1631804;87;20560;-64
2021/12/06 09:57:54;;;;;;;;;;;;;;;1.92;88.08;99937.86;1631093;86;20201;-65
2021/12/06 10:00:26;;;;;;;;;;;;;;;1.94;88.11;99937.20;1650701;86;20228;-66
2021/12/06 10:02:55;;;;;;;;;;;;;;;1.94;88.03;99938.56;1655189;87;20236;-65
2021/12/06 10:05:26;;;;;;;;;;;;;;;1.96;87.93;99941.14;1631680;87;20508;-64
2021/12/06 10:07:54;;;;;;;;;;;;;;;1.93;87.87;99933.31;1648855;87;20203;-67
2021/12/06 10:10:25;;;;;;;;;;;;;;;1.97;87.92;99932.03;1633546;87;20335;-64
2021/12/06 10:12:54;;;;;;;;;;;;;;;2.00;87.89;99934.42;1643862;86;20227;-65
2021/12/06 10:15:25;;;;;;;;;;;;;;;2.00;87.88;99931.73;1637410;86;20261;-63
2021/12/06 10:17:58;;;;;;;;;;;;;;;1.99;87.85;99925.97;1646551;87;20154;-62
2021/12/06 10:20:26;;;;;;;;;;;;;;;1.97;87.78;99931.53;1654561;86;20492;-63
2021/12/06 10:22:56;;;;;;;;;;;;;;;1.94;87.75;99930.45;1681115;85;20302;-64
2021/12/06 10:25:37;;;;;;;;;;;;;;;1.92;87.84;99925.71;1638616;86;20252;-64
2021/12/06 10:28:10;;;;;;;;;;;;;;;1.90;87.74;99932.62;1671750;85;20223;-64
2021/12/06 10:30:43;;;;;;;;;;;;;;;1.87;87.73;99932.08;1691804;85;20289;-64
2021/12/06 10:33:14;;;;;;;;;;;;;;;1.88;87.87;99923.81;1666370;85;20206;-65
2021/12/06 10:35:51;;;;;;;;;;;;;;;1.92;87.98;99927.06;1668717;85;20275;-64
2021/12/06 10:38:28;;;;;;;;;;;;;;;1.89;87.86;99921.97;1657870;86;20214;-65
2021/12/06 10:41:00;;;;;;;;;;;;;;;1.88;87.98;99924.32;1672750;86;20249;-65
2021/12/06 10:43:28;;;;;;;;;;;;;;;1.88;88.17;99910.81;1656275;86;20222;-68
2021/12/06 10:45:59;;;;;;;;;;;;;;;1.88;88.21;99913.02;1672863;86;20303;-67
2021/12/06 10:48:30;;;;;;;;;;;;;;;1.90;88.31;99905.60;1680820;84;20244;-65
2021/12/06 10:51:04;;;;;;;;;;;;;;;1.94;88.33;99906.14;1730443;82;20563;-67
2021/12/06 10:53:38;;;;;;;;;;;;;;;1.98;88.36;99906.22;1717269;82;20148;-65
2021/12/06 10:56:14;;;;;;;;;;;;;;;2.03;88.40;99907.95;1728786;82;20494;-65
2021/12/06 10:58:37;;;;;;;;;;;;;;;2.05;88.42;99905.94;1718686;82;20490;-65
2021/12/06 11:01:12;;;;;;;;;;;;;;;2.06;88.41;99913.04;1740621;82;20200;-65
2021/12/06 11:03:47;;;;;;;;;;;;;;;2.10;88.48;99917.63;1746501;82;20189;-66
2021/12/06 11:06:22;;;;;;;;;;;;;;;2.11;88.41;99916.13;1744080;82;20157;-65
2021/12/06 11:08:53;;;;;;;;;;;;;;;2.07;88.27;99912.54;1736369;82;20257;-64
2021/12/06 11:11:28;;;;;;;;;;;;;;;2.07;88.36;99910.69;1743337;82;20517;-66
2021/12/06 11:14:00;;;;;;;;;;;;;;;2.08;88.33;99915.09;1728301;82;20179;-65
2021/12/06 11:16:32;;;;;;;;;;;;;;;2.09;88.37;99924.89;1731486;82;20230;-63
2021/12/06 11:19:04;;;;;;;;;;;;;;;2.11;88.46;99913.42;1740680;82;20162;-63
2021/12/06 11:21:42;;;;;;;;;;;;;;;2.13;88.39;99914.63;1754978;82;20173;-63
2021/12/06 11:24:32;;;;;;;;;;;;;;;2.11;88.38;99909.37;1719339;82;20208;-65
2021/12/06 11:27:06;;;;;;;;;;;;;;;2.08;88.30;99909.68;1723990;82;20172;-63
2021/12/06 11:29:49;;;;;;;;;;;;;;;2.06;88.32;99902.73;1740328;82;20149;-63
2021/12/06 11:32:35;;;;;;;;;;;;;;;2.02;88.27;99898.14;1729078;82;20155;-64
2021/12/06 11:35:13;;;;;;;;;;;;;;;2.04;88.33;99898.84;1738815;82;20222;-63
2021/12/06 11:37:46;;;;;;;;;;;;;;;2.01;88.27;99892.39;1730385;83;20521;-64
2021/12/06 11:40:33;;;;;;;;;;;;;;;2.01;88.26;99894.25;1739764;82;20513;-65
2021/12/06 11:43:09;;;;;;;;;;;;;;;2.01;88.39;99896.45;1740248;82;20206;-68
2021/12/06 11:45:57;;;;;;;;;;;;;;;2.00;88.39;99896.09;1697483;84;20545;-69
2021/12/06 11:48:39;;;;;;;;;;;;;;;1.99;88.45;99897.10;1683422;84;20518;-68
2021/12/06 11:51:11;;;;;;;;;;;;;;;1.97;88.45;99899.11;1687640;84;20181;-66
2021/12/06 11:53:48;;;;;;;;;;;;;;;1.97;88.47;99894.21;1700079;84;20213;-64
2021/12/06 11:56:25;;;;;;;;;;;;;;;1.96;88.56;99887.96;1697834;84;20217;-64
2021/12/06 11:58:59;;;;;;;;;;;;;;;1.98;88.56;99888.66;1708531;84;20475;-63
2021/12/06 12:01:30;;;;;;;;;;;;;;;1.99;88.64;99882.75;1708142;84;20185;-64
2021/12/06 12:04:06;;;;;;;;;;;;;;;1.97;88.66;99881.55;1679554;84;20256;-64
2021/12/06 12:06:40;;;;;;;;;;;;;;;1.97;88.77;99891.01;1698035;84;20218;-64
2021/12/06 12:09:17;;;;;;;;;;;;;;;1.98;88.84;99888.66;1680163;84;20162;-64
2021/12/06 12:12:01;;;;;;;;;;;;;;;1.97;88.82;99886.11;1711160;83;20568;-65
2021/12/06 12:14:38;;;;;;;;;;;;;;;1.94;88.82;99885.88;1706824;83;20180;-64
2021/12/06 12:17:09;;;;;;;;;;;;;;;1.93;88.90;99873.88;1656853;84;20526;-62
2021/12/06 12:19:39;;;;;;;;;;;;;;;1.93;88.96;99875.23;1678205;84;20201;-64
2021/12/06 12:22:09;;;;;;;;;;;;;;;1.91;89.04;99888.39;1676722;84;20154;-62
2021/12/06 12:24:41;;;;;;;;;;;;;;;1.92;89.11;99895.99;1699544;84;20204;-62
2021/12/06 12:27:23;;;;;;;;;;;;;;;1.89;89.16;99889.05;1698207;84;20196;-62
2021/12/06 12:29:40;;;;;;;;;;;;;;;1.88;89.26;99885.15;1700699;84;20504;-66
2021/12/06 12:32:09;;;;;;;;;;;;;;;1.87;89.32;99887.50;1662158;84;20191;-61
2021/12/06 12:34:38;;;;;;;;;;;;;;;1.86;89.39;99879.05;1698430;83;20184;-65
2021/12/06 12:37:07;;;;;;;;;;;;;;;1.89;89.49;99880.09;1668158;84;20199;-62
2021/12/06 12:39:36;;;;;;;;;;;;;;;1.91;89.48;99884.84;1700878;84;20156;-63
2021/12/06 12:42:05;;;;;;;;;;;;;;;1.93;89.51;99883.34;1694545;83;20264;-64
2021/12/06 12:44:51;;;;;;;;;;;;;;;1.93;89.55;99881.48;1685461;84;20511;-63
2021/12/06 12:47:23;;;;;;;;;;;;;;;1.98;89.71;99875.65;1664043;84;20261;-64
2021/12/06 12:49:59;;;;;;;;;;;;;;;2.06;90.01;99881.97;1667329;84;20166;-64
2021/12/06 12:52:44;;;;;;;;;;;;;;;2.07;89.92;99878.26;1694566;84;20167;-67
2021/12/06 12:55:27;;;;;;;;;;;;;;;2.02;89.81;99879.23;1678566;85;20212;-64
2021/12/06 12:58:16;;;;;;;;;;;;;;;2.00;89.82;99873.64;1659262;85;20220;-66
2021/12/06 13:01:01;;;;;;;;;;;;;;;2.02;89.90;99877.03;1688474;85;20176;-64
2021/12/06 13:03:43;;;;;;;;;;;;;;;2.01;89.86;99878.88;1662598;85;20494;-64
2021/12/06 13:06:27;;;;;;;;;;;;;;;2.04;89.96;99882.62;1706861;83;20235;-63
2021/12/06 13:09:02;;;;;;;;;;;;;;;2.03;90.14;99874.17;1690205;84;20464;-63
2021/12/06 13:11:46;;;;;;;;;;;;;;;2.06;90.23;99873.86;1700752;84;20265;-65
2021/12/06 13:14:27;;;;;;;;;;;;;;;2.09;90.29;99881.66;1664856;85;20391;-63
2021/12/06 13:17:01;;;;;;;;;;;;;;;2.15;90.52;99889.64;1684921;84;20186;-64
2021/12/06 13:19:40;;;;;;;;;;;;;;;2.18;90.54;99887.98;1698853;84;20146;-62
2021/12/06 13:22:28;;;;;;;;;;;;;;;2.16;90.40;99877.83;1706047;83;20160;-63
2021/12/06 13:25:03;;;;;;;;;;;;;;;2.09;90.23;99880.30;1686459;83;20456;-65